createdAt,value
2023-03-26T00:01:36.974Z,2.40
2023-03-26T00:04:06.901Z,2.38
2023-03-26T00:06:39.561Z,2.35
2023-03-26T00:09:10.310Z,2.45
2023-03-26T00:11:37.665Z,2.58
2023-03-26T00:14:05.826Z,2.50
2023-03-26T00:16:33.899Z,2.58
2023-03-26T00:19:02.220Z,2.30
2023-03-26T00:21:31.264Z,2.60
2023-03-26T00:24:07.847Z,2.63
2023-03-26T00:26:37.759Z,2.17
2023-03-26T00:29:07.027Z,3.17
2023-03-26T00:31:34.896Z,2.53
2023-03-26T00:34:03.987Z,2.75
2023-03-26T00:36:31.234Z,2.95
2023-03-26T00:38:58.340Z,2.30
2023-03-26T00:41:27.169Z,2.72
2023-03-26T00:43:57.469Z,3.28
2023-03-26T00:46:26.707Z,3.00
2023-03-26T00:48:54.487Z,2.85
2023-03-26T00:51:22.433Z,2.63
2023-03-26T00:53:50.970Z,2.90
2023-03-26T00:56:19.118Z,2.42
2023-03-26T00:58:47.872Z,3.70
2023-03-26T01:01:28.724Z,3.08
2023-03-26T01:04:27.991Z,3.90
2023-03-26T01:06:55.918Z,3.22
2023-03-26T01:09:34.376Z,3.78
2023-03-26T01:12:04.593Z,3.53
2023-03-26T01:14:31.938Z,4.25
2023-03-26T01:17:02.181Z,3.55
2023-03-26T01:19:45.104Z,4.10
2023-03-26T01:22:26.303Z,3.60
2023-03-26T01:24:56.868Z,4.30
2023-03-26T01:27:42.929Z,4.20
2023-03-26T01:30:33.815Z,4.15
2023-03-26T01:34:04.380Z,4.10
2023-03-26T01:36:56.995Z,4.18
2023-03-26T01:39:39.044Z,3.92
2023-03-26T01:42:24.960Z,5.35
2023-03-26T01:44:59.793Z,4.30
2023-03-26T01:47:27.122Z,4.18
2023-03-26T01:49:54.507Z,4.45
2023-03-26T01:52:26.355Z,4.65
2023-03-26T01:54:54.901Z,5.03
2023-03-26T01:58:07.909Z,4.65
2023-03-26T02:00:45.518Z,4.60
2023-03-26T02:03:35.536Z,5.25
2023-03-26T02:06:39.671Z,5.10
2023-03-26T02:09:24.147Z,4.70
2023-03-26T02:11:51.749Z,4.70
2023-03-26T02:14:18.855Z,4.97
2023-03-26T02:16:47.267Z,5.65
2023-03-26T02:19:22.046Z,5.10
2023-03-26T02:21:51.749Z,4.80
2023-03-26T02:24:21.951Z,5.03
2023-03-26T02:26:49.095Z,5.20
2023-03-26T02:29:20.846Z,5.70
2023-03-26T02:31:48.743Z,5.25
2023-03-26T02:34:18.670Z,5.60
2023-03-26T02:36:45.809Z,5.20
2023-03-26T02:39:14.479Z,4.90
2023-03-26T02:41:41.627Z,5.80
2023-03-26T02:44:08.722Z,5.30
2023-03-26T02:46:36.108Z,4.53
2023-03-26T02:49:03.220Z,4.70
2023-03-26T02:51:35.086Z,5.25
2023-03-26T02:54:02.622Z,5.70
2023-03-26T02:56:30.044Z,5.50
2023-03-26T02:58:57.204Z,5.25
2023-03-26T03:01:24.689Z,5.40
2023-03-26T03:03:51.864Z,4.90
2023-03-26T03:06:20.702Z,4.90
2023-03-26T03:08:48.169Z,5.20
2023-03-26T03:11:18.843Z,5.63
2023-03-26T03:13:47.046Z,4.88
2023-03-26T03:16:14.416Z,5.57
2023-03-26T03:18:41.662Z,4.95
2023-03-26T03:21:08.796Z,5.00
2023-03-26T03:23:36.038Z,5.15
2023-03-26T03:26:03.172Z,4.88
2023-03-26T03:28:30.791Z,5.20
2023-03-26T03:30:57.986Z,4.95
2023-03-26T03:33:25.465Z,4.88
2023-03-26T03:35:53.084Z,4.97
2023-03-26T03:38:21.193Z,4.38
2023-03-26T03:40:48.508Z,5.07
2023-03-26T03:43:15.815Z,4.85
2023-03-26T03:45:43.226Z,5.57
2023-03-26T05:05:03.167Z,7.07
2023-03-26T05:07:30.475Z,6.20
2023-03-26T05:09:57.736Z,6.40
2023-03-26T05:12:25.025Z,7.25
2023-03-26T05:14:52.106Z,6.38
2023-03-26T05:17:21.549Z,6.78
2023-03-26T05:19:48.669Z,6.60
2023-03-26T05:22:19.485Z,6.50
2023-03-26T05:24:49.876Z,6.40
2023-03-26T05:27:17.537Z,6.20
2023-03-26T05:29:45.324Z,6.38
2023-03-26T05:32:12.822Z,6.97
2023-03-26T05:34:40.798Z,6.72
2023-03-26T05:37:09.430Z,6.97
2023-03-26T05:39:36.600Z,6.82
2023-03-26T05:42:04.165Z,7.15
2023-03-26T05:44:31.448Z,8.35
2023-03-26T05:46:58.561Z,7.72
2023-03-26T05:49:25.723Z,8.20
2023-03-26T05:51:54.985Z,7.00
2023-03-26T05:54:22.557Z,6.38
2023-03-26T05:56:49.808Z,7.15
2023-03-26T05:59:17.299Z,7.32
2023-03-26T06:01:45.417Z,7.75
2023-03-26T06:04:13.864Z,8.35
2023-03-26T06:06:41.455Z,7.70
2023-03-26T06:09:08.753Z,7.45
2023-03-26T06:11:35.970Z,7.82
2023-03-26T06:14:03.046Z,7.82
2023-03-26T06:16:30.225Z,7.20
2023-03-26T06:18:57.849Z,7.40
2023-03-26T06:21:29.289Z,6.68
2023-03-26T06:23:56.576Z,7.38
2023-03-26T06:26:23.853Z,6.75
2023-03-26T06:28:51.289Z,7.95
2023-03-26T06:31:19.487Z,6.35
2023-03-26T06:33:47.128Z,6.30
2023-03-26T06:36:15.004Z,7.03
2023-03-26T06:38:42.342Z,7.55
2023-03-26T06:41:09.453Z,7.15
2023-03-26T06:43:37.615Z,6.20
2023-03-26T06:46:05.183Z,6.57
2023-03-26T06:48:32.507Z,7.18
2023-03-26T06:50:59.739Z,6.85
2023-03-26T06:53:26.991Z,7.60
2023-03-26T06:55:54.852Z,6.85
2023-03-26T06:58:22.599Z,7.03
2023-03-26T07:00:54.618Z,6.93
2023-03-26T07:03:22.784Z,6.75
2023-03-26T07:05:50.401Z,6.10
2023-03-26T07:08:17.540Z,7.00
2023-03-26T07:10:46.545Z,7.05
2023-03-26T07:13:13.665Z,6.60
2023-03-26T07:15:40.850Z,5.80
2023-03-26T07:18:10.614Z,7.22
2023-03-26T07:20:38.037Z,6.32
2023-03-26T07:23:05.584Z,5.85
2023-03-26T07:25:33.098Z,5.35
2023-03-26T07:29:05.194Z,5.70
2023-03-26T07:31:49.952Z,5.25
2023-03-26T07:34:49.038Z,4.70
2023-03-26T07:37:42.211Z,4.50
2023-03-26T07:40:44.837Z,4.43
2023-03-26T07:43:22.993Z,4.00
2023-03-26T07:45:50.651Z,4.45
2023-03-26T07:48:21.744Z,4.63
2023-03-26T07:50:49.380Z,3.72
2023-03-26T07:53:20.109Z,3.88
2023-03-26T07:55:56.032Z,5.25
2023-03-26T07:58:44.956Z,3.90
2023-03-26T08:01:46.896Z,4.53
2023-03-26T08:04:53.798Z,4.68
2023-03-26T08:07:55.919Z,5.68
2023-03-26T08:11:07.771Z,4.47
2023-03-26T08:14:27.930Z,4.35
2023-03-26T08:17:16.581Z,3.95
2023-03-26T08:20:12.177Z,3.58
2023-03-26T08:22:42.892Z,3.55
2023-03-26T08:25:23.699Z,4.03
2023-03-26T08:28:16.672Z,4.05
2023-03-26T08:30:45.612Z,3.72
2023-03-26T08:33:19.190Z,4.32
2023-03-26T08:35:49.731Z,4.63
2023-03-26T08:38:19.735Z,3.50
2023-03-26T08:41:11.357Z,4.65
2023-03-26T08:44:21.374Z,3.80
2023-03-26T08:47:28.709Z,3.15
2023-03-26T08:50:39.568Z,4.45
2023-03-26T08:53:34.607Z,3.92
2023-03-26T08:56:57.900Z,3.35
2023-03-26T08:59:53.709Z,4.30
2023-03-26T09:03:08.222Z,4.05
2023-03-26T09:05:55.002Z,4.65
2023-03-26T09:09:00.936Z,4.30
2023-03-26T09:11:54.368Z,3.80
2023-03-26T09:14:37.646Z,4.22
2023-03-26T09:17:29.192Z,4.82
2023-03-26T09:20:41.625Z,4.63
2023-03-26T09:23:48.741Z,3.65
2023-03-26T09:27:00.607Z,3.95
2023-03-26T09:30:04.537Z,4.85
2023-03-26T09:32:40.474Z,4.95
2023-03-26T09:35:14.732Z,4.95
2023-03-26T09:38:25.637Z,4.82
2023-03-26T09:41:22.935Z,4.30
2023-03-26T09:44:06.300Z,4.05
2023-03-26T09:47:00.625Z,3.72
2023-03-26T09:50:14.930Z,4.13
2023-03-26T09:52:50.320Z,4.10
2023-03-26T09:55:48.773Z,5.55
2023-03-26T09:58:46.550Z,4.25
2023-03-26T10:01:34.381Z,3.30
2023-03-26T10:04:41.194Z,3.97
2023-03-26T10:07:31.649Z,4.28
2023-03-26T10:10:41.547Z,3.60
2023-03-26T10:13:23.920Z,3.45
2023-03-26T10:16:34.998Z,3.65
2023-03-26T10:19:20.813Z,3.70
2023-03-26T10:22:00.629Z,4.55
2023-03-26T10:25:13.410Z,3.92
2023-03-26T10:28:36.694Z,3.55
2023-03-26T10:31:31.327Z,3.20
2023-03-26T10:34:28.042Z,4.03
2023-03-26T10:37:34.095Z,3.28
2023-03-26T10:40:10.356Z,3.55
2023-03-26T10:43:09.107Z,4.05
2023-03-26T10:45:55.925Z,4.25
2023-03-26T10:48:53.819Z,3.80
2023-03-26T10:51:48.817Z,3.60
2023-03-26T10:55:02.529Z,3.78
2023-03-26T10:57:45.399Z,3.40
2023-03-26T11:00:25.807Z,4.63
2023-03-26T11:03:21.341Z,4.18
2023-03-26T11:05:57.416Z,4.32
2023-03-26T11:08:58.565Z,3.80
2023-03-26T11:12:26.759Z,4.18
2023-03-26T11:15:20.628Z,3.90
2023-03-26T11:18:24.962Z,3.45
2023-03-26T11:21:19.146Z,4.18
2023-03-26T11:24:04.856Z,4.60
2023-03-26T11:26:51.120Z,3.90
2023-03-26T11:29:41.334Z,3.42
2023-03-26T11:32:22.401Z,3.88
2023-03-26T11:35:06.488Z,4.00
2023-03-26T11:37:51.329Z,3.92
2023-03-26T11:40:34.245Z,3.80
2023-03-26T11:43:05.205Z,3.65
2023-03-26T11:45:37.614Z,3.45
2023-03-26T11:48:19.613Z,3.55
2023-03-26T11:50:53.021Z,4.97
2023-03-26T11:53:22.946Z,3.90
2023-03-26T11:56:15.292Z,3.15
2023-03-26T11:59:16.653Z,3.63
2023-03-26T12:02:05.386Z,3.72
2023-03-26T12:04:46.405Z,3.35
2023-03-26T12:07:21.401Z,2.78
2023-03-26T12:10:17.739Z,2.72
2023-03-26T12:12:47.806Z,3.25
2023-03-26T12:15:21.131Z,3.03
2023-03-26T12:17:53.748Z,3.47
2023-03-26T12:20:31.237Z,4.22
2023-03-26T12:23:05.235Z,3.33
2023-03-26T12:25:36.706Z,3.72
2023-03-26T12:28:19.205Z,3.50
2023-03-26T12:31:03.185Z,3.30
2023-03-26T12:33:35.938Z,2.80
2023-03-26T12:36:23.440Z,3.08
2023-03-26T12:39:42.688Z,3.17
2023-03-26T12:42:25.980Z,3.33
2023-03-26T12:44:56.579Z,2.45
2023-03-26T12:47:57.722Z,3.10
2023-03-26T12:50:37.587Z,2.75
2023-03-26T12:53:49.498Z,3.90
2023-03-26T12:57:12.312Z,3.08
2023-03-26T12:59:47.727Z,3.08
2023-03-26T13:02:34.305Z,2.75
2023-03-26T13:05:54.970Z,2.75
2023-03-26T13:08:53.508Z,2.90
2023-03-26T13:11:49.548Z,3.08
2023-03-26T13:15:01.618Z,3.13
2023-03-26T13:18:02.581Z,2.67
2023-03-26T13:21:02.417Z,2.70
2023-03-26T13:23:58.982Z,2.80
2023-03-26T13:27:01.297Z,2.50
2023-03-26T13:29:56.914Z,2.55
2023-03-26T13:32:45.283Z,2.60
2023-03-26T13:36:10.235Z,3.00
2023-03-26T13:38:58.959Z,3.55
2023-03-26T13:41:48.723Z,3.60
2023-03-26T13:44:53.379Z,3.22
2023-03-26T13:47:36.908Z,3.78
2023-03-26T13:50:26.262Z,3.08
2023-03-26T13:53:12.980Z,2.95
2023-03-26T13:55:50.916Z,4.05
2023-03-26T13:59:18.482Z,3.50
2023-03-26T14:01:55.286Z,3.30
2023-03-26T14:04:34.236Z,2.90
2023-03-26T14:07:25.017Z,3.60
2023-03-26T14:10:02.377Z,3.45
2023-03-26T14:12:59.021Z,2.67
2023-03-26T14:15:45.193Z,3.33
2023-03-26T14:18:43.603Z,3.00
2023-03-26T14:21:29.234Z,2.85
2023-03-26T14:24:11.582Z,2.92
2023-03-26T14:27:13.426Z,2.92
2023-03-26T14:30:05.036Z,3.20
2023-03-26T14:32:37.230Z,3.80
2023-03-26T14:35:35.366Z,3.20
2023-03-26T14:38:34.028Z,3.13
2023-03-26T14:41:41.095Z,3.25
2023-03-26T14:44:48.230Z,2.97
2023-03-26T14:47:24.658Z,3.05
2023-03-26T14:50:23.173Z,2.72
2023-03-26T14:52:52.609Z,3.25
2023-03-26T14:56:11.691Z,3.08
2023-03-26T14:59:22.779Z,3.00
2023-03-26T15:02:46.426Z,3.10
2023-03-26T15:06:18.045Z,4.93
2023-03-26T15:09:16.601Z,2.58
2023-03-26T15:12:16.546Z,2.75
2023-03-26T15:15:27.529Z,2.50
2023-03-26T15:18:16.520Z,3.85
2023-03-26T15:21:16.719Z,3.00
2023-03-26T15:24:14.894Z,4.20
2023-03-26T15:27:19.529Z,3.35
2023-03-26T15:30:07.630Z,3.45
2023-03-26T15:33:12.186Z,3.47
2023-03-26T15:36:03.892Z,2.85
2023-03-26T15:39:30.866Z,3.00
2023-03-26T15:42:17.364Z,3.05
2023-03-26T15:44:55.620Z,2.75
2023-03-26T15:48:12.983Z,3.15
2023-03-26T15:51:22.332Z,3.00
2023-03-26T15:54:25.901Z,2.63
2023-03-26T15:57:07.481Z,3.35
2023-03-26T15:59:50.080Z,2.72
2023-03-26T16:02:38.099Z,2.65
2023-03-26T16:05:48.727Z,2.55
2023-03-26T16:09:09.786Z,3.20
2023-03-26T16:11:58.852Z,2.90
2023-03-26T16:15:25.091Z,2.40
2023-03-26T16:18:34.342Z,2.72
2023-03-26T16:21:34.946Z,2.33
2023-03-26T16:24:08.706Z,2.83
2023-03-26T16:26:46.121Z,2.22
2023-03-26T16:29:26.282Z,2.83
2023-03-26T16:32:26.284Z,2.75
2023-03-26T16:35:03.006Z,2.10
2023-03-26T16:37:38.722Z,2.85
2023-03-26T16:40:18.214Z,2.50
2023-03-26T16:43:28.073Z,2.72
2023-03-26T16:46:23.746Z,3.13
2023-03-26T16:49:27.922Z,2.63
2023-03-26T16:52:21.392Z,2.40
2023-03-26T16:55:35.693Z,2.50
2023-03-26T16:59:06.580Z,2.53
2023-03-26T17:01:52.495Z,2.45
2023-03-26T17:04:24.846Z,2.55
2023-03-26T17:07:01.985Z,2.20
2023-03-26T17:10:04.181Z,2.85
2023-03-26T17:15:41.412Z,2.75
2023-03-26T17:18:49.420Z,4.18
2023-03-26T17:21:46.226Z,2.45
2023-03-26T17:24:45.064Z,1.92
2023-03-26T17:27:52.639Z,2.67
2023-03-26T17:31:15.896Z,2.95
2023-03-26T17:33:43.439Z,3.30
2023-03-26T17:36:22.647Z,2.70
2023-03-26T17:38:49.629Z,2.70
2023-03-26T17:44:41.615Z,2.80
2023-03-26T17:47:34.027Z,2.83
2023-03-26T17:50:13.547Z,3.65
2023-03-26T17:52:56.960Z,4.18
2023-03-26T17:55:31.163Z,4.70
2023-03-26T17:58:21.047Z,3.03
2023-03-26T18:01:16.377Z,3.40
2023-03-26T18:03:54.845Z,2.97
2023-03-26T18:06:42.901Z,2.80
2023-03-26T18:09:49.538Z,2.67
2023-03-26T18:12:38.024Z,3.88
2023-03-26T18:16:01.404Z,2.90
2023-03-26T18:18:37.766Z,2.90
2023-03-26T18:21:07.354Z,2.47
2023-03-26T18:23:47.883Z,2.65
2023-03-26T18:26:23.401Z,2.50
2023-03-26T18:29:36.460Z,2.25
2023-03-26T18:32:24.189Z,2.78
2023-03-26T18:34:58.733Z,3.13
2023-03-26T18:37:31.944Z,3.90
2023-03-26T18:40:22.708Z,3.83
2023-03-26T18:42:58.283Z,3.65
2023-03-26T18:45:31.053Z,3.10
2023-03-26T18:48:24.433Z,3.28
2023-03-26T18:51:05.204Z,3.10
2023-03-26T18:53:41.435Z,2.75
2023-03-26T18:56:42.598Z,3.75
2023-03-26T18:59:32.685Z,3.00
2023-03-26T19:02:04.558Z,3.40
2023-03-26T19:04:34.154Z,2.90
2023-03-26T19:07:01.770Z,2.83
2023-03-26T19:09:31.999Z,2.35
2023-03-26T19:12:06.821Z,3.70
2023-03-26T19:14:37.553Z,3.60
2023-03-26T19:17:06.263Z,6.05
2023-03-26T19:19:37.115Z,2.85
2023-03-26T19:22:09.562Z,2.73
2023-03-26T19:24:37.323Z,3.25
2023-03-26T19:27:04.877Z,3.40
2023-03-26T19:29:36.424Z,2.80
2023-03-26T19:32:13.909Z,4.47
2023-03-26T19:34:41.630Z,4.45
2023-03-26T19:37:23.825Z,4.35
2023-03-26T19:40:12.034Z,2.85
2023-03-26T19:42:43.111Z,3.08
2023-03-26T19:45:25.950Z,2.55
2023-03-26T19:48:03.950Z,2.83
2023-03-26T19:50:37.512Z,3.85
2023-03-26T19:53:30.712Z,3.50
2023-03-26T19:56:13.256Z,5.00
2023-03-26T19:58:41.752Z,5.13
2023-03-26T20:01:25.733Z,3.28
2023-03-26T20:04:00.516Z,2.83
2023-03-26T20:06:41.545Z,2.80
2023-03-26T20:09:11.927Z,2.92
2023-03-26T20:11:39.948Z,3.17
2023-03-26T20:14:26.434Z,3.47
2023-03-26T20:16:54.045Z,2.78
2023-03-26T20:19:21.188Z,3.38
2023-03-26T20:21:49.235Z,3.95
2023-03-26T20:24:21.670Z,2.80
2023-03-26T20:26:48.796Z,2.83
2023-03-26T20:29:19.969Z,2.50
2023-03-26T20:31:48.696Z,3.05
2023-03-26T20:34:20.252Z,3.28
2023-03-26T20:36:47.964Z,2.85
2023-03-26T20:39:16.219Z,2.85
2023-03-26T20:41:56.571Z,2.70
2023-03-26T20:44:23.804Z,3.53
2023-03-26T20:46:51.679Z,2.97
2023-03-26T20:49:18.874Z,3.33
2023-03-26T20:51:49.092Z,2.13
2023-03-26T20:54:23.483Z,2.28
2023-03-26T20:56:51.460Z,2.70
2023-03-26T20:59:22.655Z,2.65
2023-03-26T21:01:50.732Z,2.95
2023-03-26T21:04:18.088Z,3.03
2023-03-26T21:06:47.064Z,2.80
2023-03-26T21:09:19.493Z,2.47
2023-03-26T21:12:08.626Z,2.45
2023-03-26T21:14:41.776Z,2.55
2023-03-26T21:17:22.317Z,2.50
2023-03-26T21:19:50.387Z,2.85
2023-03-26T21:22:37.924Z,2.95
2023-03-26T21:25:26.038Z,2.30
2023-03-26T21:28:41.401Z,2.50
2023-03-26T21:31:19.491Z,2.40
2023-03-26T21:33:50.727Z,2.78
2023-03-26T21:36:19.968Z,1.92
2023-03-26T21:38:48.211Z,2.45
2023-03-26T21:41:24.354Z,2.35
2023-03-26T21:43:51.812Z,3.35
2023-03-26T21:46:19.309Z,2.78
2023-03-26T21:48:50.173Z,2.50
2023-03-26T21:51:18.005Z,2.73
2023-03-26T21:53:49.217Z,3.45
2023-03-26T21:56:39.232Z,2.20
2023-03-26T21:59:21.822Z,2.30
2023-03-26T22:02:43.953Z,2.17
2023-03-26T22:05:42.246Z,2.22
2023-03-26T22:08:30.194Z,2.15
2023-03-26T22:10:57.654Z,2.40
2023-03-26T22:13:25.386Z,2.88
2023-03-26T22:15:52.619Z,2.78
2023-03-26T22:18:21.812Z,2.83
2023-03-26T22:20:49.614Z,3.25
2023-03-26T22:23:18.296Z,2.40
2023-03-26T22:25:49.177Z,2.42
2023-03-26T22:28:17.115Z,2.33
2023-03-26T22:30:46.680Z,2.78
2023-03-26T22:33:15.191Z,2.15
2023-03-26T22:35:43.200Z,2.65
2023-03-26T22:38:11.850Z,1.85
2023-03-26T22:40:39.170Z,2.40
2023-03-26T22:43:06.373Z,2.38
2023-03-26T22:45:33.446Z,2.30
2023-03-26T22:48:04.691Z,2.10
2023-03-26T22:50:33.044Z,3.05
2023-03-26T22:53:00.689Z,2.33
2023-03-26T22:55:30.021Z,2.47
2023-03-26T22:57:57.767Z,3.03
2023-03-26T23:00:26.619Z,2.55
2023-03-26T23:02:56.076Z,2.50
2023-03-26T23:05:23.771Z,2.30
2023-03-26T23:07:55.487Z,2.33
2023-03-26T23:12:49.881Z,2.67
2023-03-26T23:15:17.155Z,2.53
2023-03-26T23:17:45.274Z,1.95
2023-03-26T23:20:22.228Z,2.08
2023-03-26T23:22:49.314Z,2.17
2023-03-26T23:25:16.956Z,2.35
2023-03-26T23:27:45.225Z,1.92
2023-03-26T23:30:13.545Z,1.98
2023-03-26T23:32:41.595Z,3.30
2023-03-26T23:35:09.245Z,1.80
2023-03-26T23:37:36.398Z,2.10
2023-03-26T23:40:10.112Z,2.30
2023-03-26T23:42:38.013Z,2.53
2023-03-26T23:45:06.524Z,2.10
2023-03-26T23:47:34.782Z,2.00
2023-03-26T23:50:02.690Z,1.90
2023-03-26T23:52:31.251Z,2.50
2023-03-26T23:55:01.667Z,2.10
2023-03-26T23:57:29.267Z,2.20
2023-03-26T23:59:56.430Z,2.10
